sensor_id;sensor_type;location;lat;lon;timestamp;temperature;humidity
19920;DHT22;10122;50.074;19.920;2022-07-18T17:51:53;26.00;99.90
19920;DHT22;10122;50.074;19.920;2022-07-18T17:54:19;26.40;70.00
19920;DHT22;10122;50.074;19.920;2022-07-18T17:56:45;26.30;65.50
19920;DHT22;10122;50.074;19.920;2022-07-18T17:59:11;26.30;64.30
19920;DHT22;10122;50.074;19.920;2022-07-18T18:01:37;26.20;64.80
19920;DHT22;10122;50.074;19.920;2022-07-18T18:04:03;26.10;64.40
19920;DHT22;10122;50.074;19.920;2022-07-18T18:06:28;26.00;64.70
19920;DHT22;10122;50.074;19.920;2022-07-18T18:08:56;25.90;64.90
19920;DHT22;10122;50.074;19.920;2022-07-18T18:11:22;25.80;65.10
19920;DHT22;10122;50.074;19.920;2022-07-18T18:13:47;25.70;65.40
19920;DHT22;10122;50.074;19.920;2022-07-18T18:16:13;25.70;65.90
19920;DHT22;10122;50.074;19.920;2022-07-18T18:18:38;25.60;65.70
19920;DHT22;10122;50.074;19.920;2022-07-18T18:21:04;25.60;65.70
19920;DHT22;10122;50.074;19.920;2022-07-18T18:23:30;25.50;65.90
19920;DHT22;10122;50.074;19.920;2022-07-18T18:25:56;25.50;65.90
19920;DHT22;10122;50.074;19.920;2022-07-18T18:28:23;25.30;66.40
19920;DHT22;10122;50.074;19.920;2022-07-18T18:30:49;25.30;67.20
19920;DHT22;10122;50.074;19.920;2022-07-18T18:33:15;25.20;68.70
19920;DHT22;10122;50.074;19.920;2022-07-18T18:35:41;25.10;69.60
19920;DHT22;10122;50.074;19.920;2022-07-18T18:38:06;25.00;70.20
19920;DHT22;10122;50.074;19.920;2022-07-18T18:40:34;24.80;71.40
19920;DHT22;10122;50.074;19.920;2022-07-18T18:43:00;24.80;72.50
19920;DHT22;10122;50.074;19.920;2022-07-18T18:45:26;24.80;72.70
19920;DHT22;10122;50.074;19.920;2022-07-18T18:47:52;24.70;73.50
19920;DHT22;10122;50.074;19.920;2022-07-18T18:50:18;24.60;74.80
19920;DHT22;10122;50.074;19.920;2022-07-18T18:52:43;24.50;75.50
19920;DHT22;10122;50.074;19.920;2022-07-18T18:55:11;24.40;78.40
19920;DHT22;10122;50.074;19.920;2022-07-18T18:57:40;24.40;78.70
19920;DHT22;10122;50.074;19.920;2022-07-18T19:00:06;24.30;78.60
19920;DHT22;10122;50.074;19.920;2022-07-18T19:02:33;24.20;78.80
19920;DHT22;10122;50.074;19.920;2022-07-18T19:04:58;24.10;80.60
19920;DHT22;10122;50.074;19.920;2022-07-18T19:07:24;24.10;82.80
19920;DHT22;10122;50.074;19.920;2022-07-18T19:09:50;24.10;82.00
19920;DHT22;10122;50.074;19.920;2022-07-18T19:12:15;24.00;83.20
19920;DHT22;10122;50.074;19.920;2022-07-18T19:14:41;24.00;84.60
19920;DHT22;10122;50.074;19.920;2022-07-18T19:17:07;23.90;84.90
19920;DHT22;10122;50.074;19.920;2022-07-18T19:19:33;23.80;86.70
19920;DHT22;10122;50.074;19.920;2022-07-18T19:21:58;23.70;90.10
19920;DHT22;10122;50.074;19.920;2022-07-18T19:24:24;23.70;90.90
19920;DHT22;10122;50.074;19.920;2022-07-18T19:26:50;23.60;91.90
19920;DHT22;10122;50.074;19.920;2022-07-18T19:29:16;23.60;92.40
19920;DHT22;10122;50.074;19.920;2022-07-18T19:31:42;23.50;93.00
19920;DHT22;10122;50.074;19.920;2022-07-18T19:34:07;23.40;93.60
19920;DHT22;10122;50.074;19.920;2022-07-18T19:36:33;23.40;94.10
19920;DHT22;10122;50.074;19.920;2022-07-18T19:38:59;23.40;94.70
19920;DHT22;10122;50.074;19.920;2022-07-18T19:41:24;23.30;94.70
19920;DHT22;10122;50.074;19.920;2022-07-18T19:43:50;23.30;95.30
19920;DHT22;10122;50.074;19.920;2022-07-18T19:46:16;23.20;95.60
19920;DHT22;10122;50.074;19.920;2022-07-18T19:48:43;23.20;96.20
19920;DHT22;10122;50.074;19.920;2022-07-18T19:51:10;23.10;97.40
19920;DHT22;10122;50.074;19.920;2022-07-18T19:53:36;23.10;98.40
19920;DHT22;10122;50.074;19.920;2022-07-18T19:56:02;23.10;99.10
19920;DHT22;10122;50.074;19.920;2022-07-18T19:58:27;23.00;99.90
19920;DHT22;10122;50.074;19.920;2022-07-18T20:00:53;23.00;99.90
19920;DHT22;10122;50.074;19.920;2022-07-18T20:03:19;22.90;99.90
19920;DHT22;10122;50.074;19.920;2022-07-18T20:05:44;22.90;99.90
19920;DHT22;10122;50.074;19.920;2022-07-18T20:08:10;22.80;99.90
19920;DHT22;10122;50.074;19.920;2022-07-18T20:10:38;22.80;99.90
19920;DHT22;10122;50.074;19.920;2022-07-18T20:13:05;22.70;99.90
19920;DHT22;10122;50.074;19.920;2022-07-18T20:15:31;22.70;99.90
19920;DHT22;10122;50.074;19.920;2022-07-18T20:18:02;22.60;99.90
19920;DHT22;10122;50.074;19.920;2022-07-18T20:20:28;22.60;99.90
19920;DHT22;10122;50.074;19.920;2022-07-18T20:22:54;22.50;99.90
19920;DHT22;10122;50.074;19.920;2022-07-18T20:25:20;22.50;99.90
19920;DHT22;10122;50.074;19.920;2022-07-18T20:27:47;22.40;99.90
19920;DHT22;10122;50.074;19.920;2022-07-18T20:30:14;22.40;99.90
19920;DHT22;10122;50.074;19.920;2022-07-18T20:32:40;22.40;99.90
19920;DHT22;10122;50.074;19.920;2022-07-18T20:35:08;22.30;99.90
19920;DHT22;10122;50.074;19.920;2022-07-18T20:37:34;22.30;99.90
19920;DHT22;10122;50.074;19.920;2022-07-18T20:40:00;22.20;99.90
19920;DHT22;10122;50.074;19.920;2022-07-18T20:42:25;22.20;99.90
19920;DHT22;10122;50.074;19.920;2022-07-18T20:44:51;22.10;99.90
19920;DHT22;10122;50.074;19.920;2022-07-18T20:47:17;22.10;99.90
19920;DHT22;10122;50.074;19.920;2022-07-18T20:49:43;22.00;99.90
19920;DHT22;10122;50.074;19.920;2022-07-18T20:52:08;22.00;99.90
19920;DHT22;10122;50.074;19.920;2022-07-18T20:54:34;21.90;99.90
19920;DHT22;10122;50.074;19.920;2022-07-18T20:57:00;21.90;99.90
19920;DHT22;10122;50.074;19.920;2022-07-18T20:59:25;21.90;99.90
19920;DHT22;10122;50.074;19.920;2022-07-18T21:01:51;21.80;99.90
19920;DHT22;10122;50.074;19.920;2022-07-18T21:04:18;21.80;99.90
19920;DHT22;10122;50.074;19.920;2022-07-18T21:06:43;21.70;99.90
19920;DHT22;10122;50.074;19.920;2022-07-18T21:09:09;21.60;99.90
19920;DHT22;10122;50.074;19.920;2022-07-18T21:11:35;21.50;99.90
19920;DHT22;10122;50.074;19.920;2022-07-18T21:14:02;21.50;99.90
19920;DHT22;10122;50.074;19.920;2022-07-18T21:16:47;21.50;99.90
19920;DHT22;10122;50.074;19.920;2022-07-18T21:19:15;21.40;99.90
19920;DHT22;10122;50.074;19.920;2022-07-18T21:21:40;21.40;99.90
19920;DHT22;10122;50.074;19.920;2022-07-18T21:24:06;21.40;99.90
19920;DHT22;10122;50.074;19.920;2022-07-18T21:26:33;21.40;99.90
19920;DHT22;10122;50.074;19.920;2022-07-18T21:28:59;21.20;99.90
19920;DHT22;10122;50.074;19.920;2022-07-18T21:31:24;21.20;99.90
19920;DHT22;10122;50.074;19.920;2022-07-18T21:33:50;21.10;99.90
19920;DHT22;10122;50.074;19.920;2022-07-18T21:36:15;21.10;99.90
19920;DHT22;10122;50.074;19.920;2022-07-18T21:38:42;21.10;99.90
19920;DHT22;10122;50.074;19.920;2022-07-18T21:41:07;21.00;99.90
19920;DHT22;10122;50.074;19.920;2022-07-18T21:43:33;20.90;99.90
19920;DHT22;10122;50.074;19.920;2022-07-18T21:45:59;20.90;99.90
19920;DHT22;10122;50.074;19.920;2022-07-18T21:48:29;20.80;99.90
19920;DHT22;10122;50.074;19.920;2022-07-18T21:50:55;20.70;99.90
19920;DHT22;10122;50.074;19.920;2022-07-18T21:53:20;20.70;99.90
19920;DHT22;10122;50.074;19.920;2022-07-18T21:55:46;20.70;99.90
19920;DHT22;10122;50.074;19.920;2022-07-18T21:58:12;20.70;99.90
19920;DHT22;10122;50.074;19.920;2022-07-18T22:00:37;20.50;99.90
19920;DHT22;10122;50.074;19.920;2022-07-18T22:03:03;20.50;99.90
19920;DHT22;10122;50.074;19.920;2022-07-18T22:05:30;20.40;99.90
19920;DHT22;10122;50.074;19.920;2022-07-18T22:07:56;20.40;99.90
19920;DHT22;10122;50.074;19.920;2022-07-18T22:10:21;20.40;99.90
19920;DHT22;10122;50.074;19.920;2022-07-18T22:12:47;20.30;99.90
19920;DHT22;10122;50.074;19.920;2022-07-18T22:15:13;20.40;99.90
19920;DHT22;10122;50.074;19.920;2022-07-18T22:17:40;20.30;99.90
19920;DHT22;10122;50.074;19.920;2022-07-18T22:20:07;20.30;99.90
19920;DHT22;10122;50.074;19.920;2022-07-18T22:22:33;20.30;99.90
19920;DHT22;10122;50.074;19.920;2022-07-18T22:24:59;20.20;99.90
19920;DHT22;10122;50.074;19.920;2022-07-18T22:27:25;20.10;99.90
19920;DHT22;10122;50.074;19.920;2022-07-18T22:29:50;20.10;99.90
19920;DHT22;10122;50.074;19.920;2022-07-18T22:32:16;20.00;99.90
19920;DHT22;10122;50.074;19.920;2022-07-18T22:34:42;20.10;99.90
19920;DHT22;10122;50.074;19.920;2022-07-18T22:37:07;19.90;99.90
19920;DHT22;10122;50.074;19.920;2022-07-18T22:39:33;19.90;99.90
19920;DHT22;10122;50.074;19.920;2022-07-18T22:41:59;19.80;99.90
19920;DHT22;10122;50.074;19.920;2022-07-18T22:44:25;19.80;99.90
19920;DHT22;10122;50.074;19.920;2022-07-18T22:46:51;19.80;99.90
19920;DHT22;10122;50.074;19.920;2022-07-18T22:49:16;19.80;99.90
19920;DHT22;10122;50.074;19.920;2022-07-18T22:51:42;19.80;99.90
19920;DHT22;10122;50.074;19.920;2022-07-18T22:54:08;19.70;99.90
19920;DHT22;10122;50.074;19.920;2022-07-18T22:56:33;19.60;99.90
19920;DHT22;10122;50.074;19.920;2022-07-18T22:58:59;19.60;99.90
19920;DHT22;10122;50.074;19.920;2022-07-18T23:01:25;19.60;99.90
19920;DHT22;10122;50.074;19.920;2022-07-18T23:03:51;19.50;99.90
19920;DHT22;10122;50.074;19.920;2022-07-18T23:06:16;19.50;99.90
19920;DHT22;10122;50.074;19.920;2022-07-18T23:08:42;19.40;99.90
19920;DHT22;10122;50.074;19.920;2022-07-18T23:11:07;19.50;99.90
19920;DHT22;10122;50.074;19.920;2022-07-18T23:13:33;19.40;99.90
19920;DHT22;10122;50.074;19.920;2022-07-18T23:15:59;19.40;99.90
19920;DHT22;10122;50.074;19.920;2022-07-18T23:18:25;19.30;99.90
19920;DHT22;10122;50.074;19.920;2022-07-18T23:20:50;19.30;99.90
19920;DHT22;10122;50.074;19.920;2022-07-18T23:23:16;19.30;99.90
19920;DHT22;10122;50.074;19.920;2022-07-18T23:25:42;19.30;99.90
19920;DHT22;10122;50.074;19.920;2022-07-18T23:28:07;19.20;99.90
19920;DHT22;10122;50.074;19.920;2022-07-18T23:30:33;19.20;99.90
19920;DHT22;10122;50.074;19.920;2022-07-18T23:32:59;19.20;99.90
19920;DHT22;10122;50.074;19.920;2022-07-18T23:35:25;19.10;99.90
19920;DHT22;10122;50.074;19.920;2022-07-18T23:37:50;19.10;99.90
19920;DHT22;10122;50.074;19.920;2022-07-18T23:40:17;19.10;99.90
19920;DHT22;10122;50.074;19.920;2022-07-18T23:42:43;19.00;99.90
19920;DHT22;10122;50.074;19.920;2022-07-18T23:45:10;18.90;99.90
19920;DHT22;10122;50.074;19.920;2022-07-18T23:47:36;18.90;99.90
19920;DHT22;10122;50.074;19.920;2022-07-18T23:50:04;18.90;99.90
19920;DHT22;10122;50.074;19.920;2022-07-18T23:52:34;18.80;99.90
19920;DHT22;10122;50.074;19.920;2022-07-18T23:55:00;18.80;99.90
19920;DHT22;10122;50.074;19.920;2022-07-18T23:57:26;18.80;99.90
19920;DHT22;10122;50.074;19.920;2022-07-18T23:59:51;18.70;99.90
